(°C)
24°
23°
23°
23°
23°
23°
23°
(°C)
23°
23°
23°
23°
23°
23°
22°
JJZ
JJZ
JJZ
JJZ
JJZ
JJZ
JJZ
(km/h)
7-16
6-18
7-18
7-17
8-16
7-15
7-14
(mm)
0
0
0
0
0
0
0
(%)
0
0
0
0
0
0
1

Výška Slnka nad obzorom

/ -17.5°
sun-icon
UV 8
05:41
20:16
Zmenšujúci sa polmesiac (253°)
01:25
11:08

Správy METAR pre lokalitu Wilmington Manor (KILG)

Čas Podmienky Teplota/
Rosný bod
Vietor Viditeľnosť Počasie Oblaky Tlak Zmeniť Nespracované
VFR 25°C / 19.4°C 140º 3kt >10km - Clear 1017 - KILG 220151Z 14003KT 10SM CLR 25/19 A3005 RMK AO2 SLP176 T02500194
VFR 25°C / 18.9°C 160º 5kt >10km - Clear 1016 - KILG 220051Z 16005KT 10SM CLR 25/19 A3001 RMK AO2 SLP160 T02500189
VFR 26.7°C / 18.9°C 150º 9kt >10km - Clear 1015 - KILG 212351Z AUTO 15009KT 10SM CLR 27/19 A3000 RMK AO2 SLP158 T02670189 10339 20267 58005
VFR 29.4°C / 19.4°C 150º 8kt >10km - Clear 1016 - KILG 212251Z 15008KT 10SM CLR 29/19 A3001 RMK AO2 SLP162 T02940194
VFR 32.8°C / 19.4°C 250º 10kt >10km - Clear 1016 - KILG 212151Z 25010KT 10SM CLR 33/19 A3002 RMK AO2 SLP163 T03280194
VFR 33.3°C / 20°C 240º 8kt Gust 16kt >10km - Clear 1016 - KILG 212051Z 24008G16KT 10SM CLR 33/20 A3002 RMK AO2 SLP163 T03330200 56007
VFR 33.3°C / 20°C 210º 9kt >10km - Clear 1016 - KILG 211951Z 21009KT 10SM CLR 33/20 A3003 RMK AO2 SLP166 T03330200
VFR 33.3°C / 20.6°C 190º variable 160º to 240º 8kt >10km - Clear 1016 - KILG 211851Z 19008KT 160V240 10SM CLR 33/21 A3003 RMK AO2 SLP167 T03330206
VFR 32.2°C / 21.1°C 150º 10kt >10km - Clear 1017 - KILG 211751Z 15010KT 10SM CLR 32/21 A3004 RMK AO2 SLP170 T03220211 10328 20233 58001
VFR 31.7°C / 21.7°C 170º 10kt >10km - Clear 1017 - KILG 211651Z 17010KT 10SM CLR 32/22 A3004 RMK AO2 SLP172 T03170217
VFR 31.1°C / 21.7°C 150º 6kt >10km - Clear 1017 - KILG 211551Z 15006KT 10SM CLR 31/22 A3005 RMK AO2 SLP173 T03110217
VFR 30°C / 22.2°C 150º 6kt >10km - Clear 1017 - KILG 211451Z 15006KT 9SM CLR 30/22 A3004 RMK AO2 SLP171 T03000222 53003
VFR 28.9°C / 21.1°C 310º 3kt >10km - Clear 1017 - KILG 211351Z 31003KT 10SM CLR 29/21 A3004 RMK AO2 SLP170 T02890211
VFR 25.6°C / 20.6°C variable 0kt >10km - Clear 1016 - KILG 211251Z 00000KT 8SM CLR 26/21 A3003 RMK AO2 SLP169 T02560206
MVFR 23.3°C / 20°C variable 3kt 8000m Haze Vertical Visibility of 0ft. 1016 - KILG 211151Z VRB03KT 5SM HZ CLR 23/20 A3003 RMK AO2 SLP168 T02330200 10233 20200 53028
MVFR 21.7°C / 20°C variable 0kt 4800m Mist Vertical Visibility of 0ft. 1015 - KILG 211051Z 00000KT 3SM BR CLR 22/20 A3000 RMK AO2 SLP159 T02170200
IFR 21.1°C / 19.4°C variable 0kt 4000m Mist Vertical Visibility of 0ft. - KILG 211043Z AUTO 00000KT 2 1/2SM BR CLR 21/19 A3000 RMK AO2 T02110194
MVFR 20°C / 18.9°C 40º 4kt 4800m Mist Vertical Visibility of 0ft. 1015 - KILG 210951Z AUTO 04004KT 3SM BR CLR 20/19 A2997 RMK AO2 SLP150 T02000189
MVFR 20.6°C / 19.4°C 30º 3kt 8000m Mist Vertical Visibility of 0ft. 1014 - KILG 210851Z AUTO 03003KT 5SM BR CLR 21/19 A2995 RMK AO2 SLP141 T02060194 53015
VFR 22.2°C / 20°C variable 0kt 9700m Mist Vertical Visibility of 0ft. 1013 - KILG 210751Z AUTO 00000KT 6SM BR CLR 22/20 A2993 RMK AO2 SLP132 T02220200
VFR 22.2°C / 20°C variable 0kt 9700m Mist Vertical Visibility of 0ft. 1012 - KILG 210651Z AUTO 00000KT 6SM BR CLR 22/20 A2991 RMK AO2 SLP128 T02220200
VFR 22.2°C / 20°C variable 0kt >10km - Clear 1012 - KILG 210551Z AUTO 00000KT 7SM CLR 22/20 A2990 RMK AO2 SLP125 T02220200 10250 20217 55000
VFR 22.2°C / 20°C variable 0kt >10km - Clear 1012 - KILG 210451Z AUTO 00000KT 8SM CLR 22/20 A2991 RMK AO2 SLP126 T02220200 402940150
VFR 22.8°C / 20°C variable 0kt >10km - Clear 1012 - KILG 210351Z AUTO 00000KT 9SM CLR 23/20 A2990 RMK AO2 SLP123 T02280200

VFR

25°C / 19.4°C

[Viac]
Vietor 140º 3kt
Viditeľnosť >10km
Počasie -
Oblaky Clear
Tlak 1017
Zmeniť -
Nespracované KILG 220151Z 14003KT 10SM CLR 25/19 A3005 RMK AO2 SLP176 T02500194

VFR

25°C / 18.9°C

[Viac]
Vietor 160º 5kt
Viditeľnosť >10km
Počasie -
Oblaky Clear
Tlak 1016
Zmeniť -
Nespracované KILG 220051Z 16005KT 10SM CLR 25/19 A3001 RMK AO2 SLP160 T02500189

VFR

26.7°C / 18.9°C

[Viac]
Vietor 150º 9kt
Viditeľnosť >10km
Počasie -
Oblaky Clear
Tlak 1015
Zmeniť -
Nespracované KILG 212351Z AUTO 15009KT 10SM CLR 27/19 A3000 RMK AO2 SLP158 T02670189 10339 20267 58005

VFR

29.4°C / 19.4°C

[Viac]
Vietor 150º 8kt
Viditeľnosť >10km
Počasie -
Oblaky Clear
Tlak 1016
Zmeniť -
Nespracované KILG 212251Z 15008KT 10SM CLR 29/19 A3001 RMK AO2 SLP162 T02940194

VFR

32.8°C / 19.4°C

[Viac]
Vietor 250º 10kt
Viditeľnosť >10km
Počasie -
Oblaky Clear
Tlak 1016
Zmeniť -
Nespracované KILG 212151Z 25010KT 10SM CLR 33/19 A3002 RMK AO2 SLP163 T03280194

VFR

33.3°C / 20°C

[Viac]
Vietor 240º 8kt Gust 16kt
Viditeľnosť >10km
Počasie -
Oblaky Clear
Tlak 1016
Zmeniť -
Nespracované KILG 212051Z 24008G16KT 10SM CLR 33/20 A3002 RMK AO2 SLP163 T03330200 56007

VFR

33.3°C / 20°C

[Viac]
Vietor 210º 9kt
Viditeľnosť >10km
Počasie -
Oblaky Clear
Tlak 1016
Zmeniť -
Nespracované KILG 211951Z 21009KT 10SM CLR 33/20 A3003 RMK AO2 SLP166 T03330200

VFR

33.3°C / 20.6°C

[Viac]
Vietor 190º variable 160º to 240º 8kt
Viditeľnosť >10km
Počasie -
Oblaky Clear
Tlak 1016
Zmeniť -
Nespracované KILG 211851Z 19008KT 160V240 10SM CLR 33/21 A3003 RMK AO2 SLP167 T03330206

VFR

32.2°C / 21.1°C

[Viac]
Vietor 150º 10kt
Viditeľnosť >10km
Počasie -
Oblaky Clear
Tlak 1017
Zmeniť -
Nespracované KILG 211751Z 15010KT 10SM CLR 32/21 A3004 RMK AO2 SLP170 T03220211 10328 20233 58001

VFR

31.7°C / 21.7°C

[Viac]
Vietor 170º 10kt
Viditeľnosť >10km
Počasie -
Oblaky Clear
Tlak 1017
Zmeniť -
Nespracované KILG 211651Z 17010KT 10SM CLR 32/22 A3004 RMK AO2 SLP172 T03170217

VFR

31.1°C / 21.7°C

[Viac]
Vietor 150º 6kt
Viditeľnosť >10km
Počasie -
Oblaky Clear
Tlak 1017
Zmeniť -
Nespracované KILG 211551Z 15006KT 10SM CLR 31/22 A3005 RMK AO2 SLP173 T03110217

VFR

30°C / 22.2°C

[Viac]
Vietor 150º 6kt
Viditeľnosť >10km
Počasie -
Oblaky Clear
Tlak 1017
Zmeniť -
Nespracované KILG 211451Z 15006KT 9SM CLR 30/22 A3004 RMK AO2 SLP171 T03000222 53003

VFR

28.9°C / 21.1°C

[Viac]
Vietor 310º 3kt
Viditeľnosť >10km
Počasie -
Oblaky Clear
Tlak 1017
Zmeniť -
Nespracované KILG 211351Z 31003KT 10SM CLR 29/21 A3004 RMK AO2 SLP170 T02890211

VFR

25.6°C / 20.6°C

[Viac]
Vietor variable 0kt
Viditeľnosť >10km
Počasie -
Oblaky Clear
Tlak 1016
Zmeniť -
Nespracované KILG 211251Z 00000KT 8SM CLR 26/21 A3003 RMK AO2 SLP169 T02560206

MVFR

23.3°C / 20°C

[Viac]
Vietor variable 3kt
Viditeľnosť 8000m
Počasie Haze
Oblaky Vertical Visibility of 0ft.
Tlak 1016
Zmeniť -
Nespracované KILG 211151Z VRB03KT 5SM HZ CLR 23/20 A3003 RMK AO2 SLP168 T02330200 10233 20200 53028

MVFR

21.7°C / 20°C

[Viac]
Vietor variable 0kt
Viditeľnosť 4800m
Počasie Mist
Oblaky Vertical Visibility of 0ft.
Tlak 1015
Zmeniť -
Nespracované KILG 211051Z 00000KT 3SM BR CLR 22/20 A3000 RMK AO2 SLP159 T02170200

IFR

21.1°C / 19.4°C

[Viac]
Vietor variable 0kt
Viditeľnosť 4000m
Počasie Mist
Oblaky Vertical Visibility of 0ft.
Tlak
Zmeniť -
Nespracované KILG 211043Z AUTO 00000KT 2 1/2SM BR CLR 21/19 A3000 RMK AO2 T02110194

MVFR

20°C / 18.9°C

[Viac]
Vietor 40º 4kt
Viditeľnosť 4800m
Počasie Mist
Oblaky Vertical Visibility of 0ft.
Tlak 1015
Zmeniť -
Nespracované KILG 210951Z AUTO 04004KT 3SM BR CLR 20/19 A2997 RMK AO2 SLP150 T02000189

MVFR

20.6°C / 19.4°C

[Viac]
Vietor 30º 3kt
Viditeľnosť 8000m
Počasie Mist
Oblaky Vertical Visibility of 0ft.
Tlak 1014
Zmeniť -
Nespracované KILG 210851Z AUTO 03003KT 5SM BR CLR 21/19 A2995 RMK AO2 SLP141 T02060194 53015

VFR

22.2°C / 20°C

[Viac]
Vietor variable 0kt
Viditeľnosť 9700m
Počasie Mist
Oblaky Vertical Visibility of 0ft.
Tlak 1013
Zmeniť -
Nespracované KILG 210751Z AUTO 00000KT 6SM BR CLR 22/20 A2993 RMK AO2 SLP132 T02220200

VFR

22.2°C / 20°C

[Viac]
Vietor variable 0kt
Viditeľnosť 9700m
Počasie Mist
Oblaky Vertical Visibility of 0ft.
Tlak 1012
Zmeniť -
Nespracované KILG 210651Z AUTO 00000KT 6SM BR CLR 22/20 A2991 RMK AO2 SLP128 T02220200

VFR

22.2°C / 20°C

[Viac]
Vietor variable 0kt
Viditeľnosť >10km
Počasie -
Oblaky Clear
Tlak 1012
Zmeniť -
Nespracované KILG 210551Z AUTO 00000KT 7SM CLR 22/20 A2990 RMK AO2 SLP125 T02220200 10250 20217 55000

VFR

22.2°C / 20°C

[Viac]
Vietor variable 0kt
Viditeľnosť >10km
Počasie -
Oblaky Clear
Tlak 1012
Zmeniť -
Nespracované KILG 210451Z AUTO 00000KT 8SM CLR 22/20 A2991 RMK AO2 SLP126 T02220200 402940150

VFR

22.8°C / 20°C

[Viac]
Vietor variable 0kt
Viditeľnosť >10km
Počasie -
Oblaky Clear
Tlak 1012
Zmeniť -
Nespracované KILG 210351Z AUTO 00000KT 9SM CLR 23/20 A2990 RMK AO2 SLP123 T02280200

Správy TAF pre lokalitu Wilmington Manor (KILG)

From till


From till Wind 150º 8kt. Visibility 10km or more. Few Clouds 25000ft.
From till Wind 210º 4kt. Visibility 10km or more. Few Clouds 25000ft.
From till Wind 220º 9kt. Visibility 10km or more. Few Clouds 15000ft.
From till Wind 230º 11kt. Visibility 10km or more. Broken Clouds 20000ft.
From till Wind 230º 10kt. Visibility 10km or more. Showers Rain in the Vicinity Thunderstorm . Overcast 9000ft.

Nespracované: KILG 212335Z 2200/2224 15008KT P6SM FEW250 FM220600 21004KT P6SM FEW250 FM221300 22009KT P6SM FEW150 FM222000 23011KT P6SM BKN200 FM222200 23010KT P6SM SHRA VCTS OVC090CB

Radar a krátkodobá predpoveď zrážok pre Wilmington Manor

Mrholenie
Slabý
Mierne
Ťažké
Veľmi ťažké
Krúpy

Značka polohy je umiestnená na Wilmington Manor. Táto animácia ukazuje zrážky pozorované radarom za poslednú hodinu a tiež 1h predpoveď. Mrholenie alebo slabé sneženie môže byť pre radar neviditeľné. Intenzita zrážok je farebne označená od svetlomodrej po oranžovú.

Aktuálne satelitné snímky pre lokalitu Wilmington Manor, Spojené štáty americké

Značka polohy je umiestnená naWilmington Manor. [Viac]

Satelitné snímky zhotovované v reálnom čase využívajú viditeľné svetlo počas dňa a infračervené žiarenie počas noci. Vzhľadom na to, že infračervené žiarenie zisťuje teplotné rozdiely, snímka v noci nie je tmavá. Nízke oblaky a hmlu je, žiaľ, ťažké odlíšiť od prízemných teplôt, preto môžu byť počas noci takmer neviditeľné. Meteosat satelitné snímky pre Európu sú aktualizované v reálnom čase každých 5 minút. Snímky z GOES-16/GOES-17 (Severná a Južná Amerika) a Himawari (Ázia) sú aktualizované každých 10 minút.

Späť nahor